Terminal Aerodrome Forecast
Issued by NWS

Current Version | Previous Version | Text Only | Print | Product List | Glossary On
Versions: 1 2 3 4 5 6 7 8 9 10 11 12 13 14 15 16 17 18 19 20 21 22 23 24 25
000
FTUS44 KMAF 282234 AAB
TAFFST
TAF AMD
KFST 282234Z 2823/2918 13014G24KT P6SM BKN090
     FM290200 15011KT P6SM SKC
     FM291600 13014G24KT P6SM SCT045 SCT250=

USA.gov is the U.S. government's official web portal to all federal, state and local government web resources and services.